sensor_id;sensor_type;location;lat;lon;timestamp;pressure;altitude;pressure_sealevel;temperature;humidity
62374;BME280;48409;49.030;1.820;2023-02-12T00:00:43;102959.03;;;8.71;64.61
62374;BME280;48409;49.030;1.820;2023-02-12T00:03:11;102965.16;;;8.72;64.74
62374;BME280;48409;49.030;1.820;2023-02-12T00:05:37;102957.28;;;8.70;64.68
62374;BME280;48409;49.030;1.820;2023-02-12T00:08:03;102959.91;;;8.69;64.42
62374;BME280;48409;49.030;1.820;2023-02-12T00:10:28;102952.03;;;8.69;64.62
62374;BME280;48409;49.030;1.820;2023-02-12T00:12:54;102951.13;;;8.70;64.66
62374;BME280;48409;49.030;1.820;2023-02-12T00:15:20;102953.75;;;8.68;64.50
62374;BME280;48409;49.030;1.820;2023-02-12T00:17:45;102948.50;;;8.68;64.67
62374;BME280;48409;49.030;1.820;2023-02-12T00:20:10;102942.41;;;8.68;64.49
62374;BME280;48409;49.030;1.820;2023-02-12T00:22:36;102947.66;;;8.68;64.54
62374;BME280;48409;49.030;1.820;2023-02-12T00:25:01;102946.75;;;8.67;64.66
62374;BME280;48409;49.030;1.820;2023-02-12T00:27:27;102945.03;;;8.66;64.71
62374;BME280;48409;49.030;1.820;2023-02-12T00:29:52;102940.63;;;8.67;64.72
62374;BME280;48409;49.030;1.820;2023-02-12T00:32:17;102940.63;;;8.67;64.54
62374;BME280;48409;49.030;1.820;2023-02-12T00:34:47;102944.13;;;8.66;64.71
62374;BME280;48409;49.030;1.820;2023-02-12T00:37:12;102940.63;;;8.67;64.69
62374;BME280;48409;49.030;1.820;2023-02-12T00:39:38;102941.50;;;8.66;64.52
62374;BME280;48409;49.030;1.820;2023-02-12T00:42:04;102937.13;;;8.65;64.43
62374;BME280;48409;49.030;1.820;2023-02-12T00:44:29;102938.88;;;8.66;64.64
62374;BME280;48409;49.030;1.820;2023-02-12T00:46:55;102937.13;;;8.65;64.60
62374;BME280;48409;49.030;1.820;2023-02-12T00:49:21;102933.63;;;8.66;64.47
62374;BME280;48409;49.030;1.820;2023-02-12T00:51:47;102929.25;;;8.65;64.70
62374;BME280;48409;49.030;1.820;2023-02-12T00:54:12;102937.13;;;8.65;64.46
62374;BME280;48409;49.030;1.820;2023-02-12T00:56:38;102929.25;;;8.63;64.73
62374;BME280;48409;49.030;1.820;2023-02-12T00:59:03;102933.63;;;8.62;64.62
62374;BME280;48409;49.030;1.820;2023-02-12T01:01:29;102938.03;;;8.62;64.62
62374;BME280;48409;49.030;1.820;2023-02-12T01:03:54;102935.41;;;8.62;64.64
62374;BME280;48409;49.030;1.820;2023-02-12T01:06:19;102934.50;;;8.61;64.57
62374;BME280;48409;49.030;1.820;2023-02-12T01:08:45;102931.03;;;8.61;64.50
62374;BME280;48409;49.030;1.820;2023-02-12T01:11:11;102928.41;;;8.59;64.73
62374;BME280;48409;49.030;1.820;2023-02-12T01:13:37;102932.75;;;8.60;64.52
62374;BME280;48409;49.030;1.820;2023-02-12T01:16:08;102936.28;;;8.59;64.56
62374;BME280;48409;49.030;1.820;2023-02-12T01:18:38;102932.75;;;8.57;64.67
62374;BME280;48409;49.030;1.820;2023-02-12T01:21:21;102933.66;;;8.59;64.78
62374;BME280;48409;49.030;1.820;2023-02-12T01:23:47;102930.13;;;8.57;64.53
62374;BME280;48409;49.030;1.820;2023-02-12T01:26:14;102926.63;;;8.58;64.77
62374;BME280;48409;49.030;1.820;2023-02-12T01:28:42;102931.91;;;8.55;64.59
62374;BME280;48409;49.030;1.820;2023-02-12T01:31:10;102930.16;;;8.54;64.74
62374;BME280;48409;49.030;1.820;2023-02-12T01:33:35;102928.38;;;8.53;64.63
62374;BME280;48409;49.030;1.820;2023-02-12T01:36:01;102931.91;;;8.54;64.77
62374;BME280;48409;49.030;1.820;2023-02-12T01:38:26;102931.88;;;8.52;64.83
62374;BME280;48409;49.030;1.820;2023-02-12T01:40:51;102923.13;;;8.53;64.69
62374;BME280;48409;49.030;1.820;2023-02-12T01:43:17;102923.13;;;8.53;64.82
62374;BME280;48409;49.030;1.820;2023-02-12T01:45:48;102923.13;;;8.53;64.80
62374;BME280;48409;49.030;1.820;2023-02-12T01:48:15;102928.34;;;8.52;64.75
62374;BME280;48409;49.030;1.820;2023-02-12T01:50:43;102929.25;;;8.52;64.69
62374;BME280;48409;49.030;1.820;2023-02-12T01:53:10;102931.88;;;8.52;64.77
62374;BME280;48409;49.030;1.820;2023-02-12T01:55:37;102931.88;;;8.49;64.64
62374;BME280;48409;49.030;1.820;2023-02-12T01:58:03;102931.88;;;8.52;64.66
62374;BME280;48409;49.030;1.820;2023-02-12T02:00:29;102930.13;;;8.51;64.56
62374;BME280;48409;49.030;1.820;2023-02-12T02:02:57;102931.88;;;8.51;64.49
62374;BME280;48409;49.030;1.820;2023-02-12T02:05:53;102926.59;;;8.49;64.59
62374;BME280;48409;49.030;1.820;2023-02-12T02:08:20;102928.38;;;8.47;64.60
62374;BME280;48409;49.030;1.820;2023-02-12T02:10:46;102927.50;;;8.48;64.50
62374;BME280;48409;49.030;1.820;2023-02-12T02:13:11;102930.13;;;8.45;64.73
62374;BME280;48409;49.030;1.820;2023-02-12T02:15:59;102931.00;;;8.45;64.48
62374;BME280;48409;49.030;1.820;2023-02-12T02:18:34;102926.63;;;8.43;64.51
62374;BME280;48409;49.030;1.820;2023-02-12T02:21:45;102925.75;;;8.44;64.76
62374;BME280;48409;49.030;1.820;2023-02-12T02:29:47;102929.25;;;8.38;64.74
62374;BME280;48409;49.030;1.820;2023-02-12T02:32:23;102931.91;;;8.36;64.74
62374;BME280;48409;49.030;1.820;2023-02-12T02:34:59;102934.53;;;8.35;64.72
62374;BME280;48409;49.030;1.820;2023-02-12T02:37:31;102930.13;;;8.35;64.64
62374;BME280;48409;49.030;1.820;2023-02-12T02:40:10;102928.38;;;8.34;64.60
62374;BME280;48409;49.030;1.820;2023-02-12T02:42:46;102917.88;;;8.34;64.61
62374;BME280;48409;49.030;1.820;2023-02-12T02:45:25;102921.38;;;8.33;64.78
62374;BME280;48409;49.030;1.820;2023-02-12T02:51:11;102918.78;;;8.35;64.74
62374;BME280;48409;49.030;1.820;2023-02-12T02:53:50;102915.25;;;8.33;64.75
62374;BME280;48409;49.030;1.820;2023-02-12T02:56:19;102915.25;;;8.33;64.63
62374;BME280;48409;49.030;1.820;2023-02-12T02:58:52;102906.53;;;8.32;64.70
62374;BME280;48409;49.030;1.820;2023-02-12T03:01:26;102912.63;;;8.33;64.75
62374;BME280;48409;49.030;1.820;2023-02-12T03:04:02;102910.88;;;8.30;64.77
62374;BME280;48409;49.030;1.820;2023-02-12T03:06:40;102907.38;;;8.31;64.60
62374;BME280;48409;49.030;1.820;2023-02-12T03:09:21;102914.41;;;8.32;64.65
62374;BME280;48409;49.030;1.820;2023-02-12T03:11:48;102910.88;;;8.30;64.85
62374;BME280;48409;49.030;1.820;2023-02-12T03:14:22;102910.88;;;8.30;64.67
62374;BME280;48409;49.030;1.820;2023-02-12T03:17:12;102910.03;;;8.30;64.57
62374;BME280;48409;49.030;1.820;2023-02-12T03:19:44;102900.38;;;8.29;64.66
62374;BME280;48409;49.030;1.820;2023-02-12T03:22:32;102910.03;;;8.28;64.82
62374;BME280;48409;49.030;1.820;2023-02-12T03:25:25;102905.63;;;8.29;64.69
62374;BME280;48409;49.030;1.820;2023-02-12T03:28:05;102903.00;;;8.29;64.64
62374;BME280;48409;49.030;1.820;2023-02-12T03:30:40;102896.88;;;8.28;64.63
62374;BME280;48409;49.030;1.820;2023-02-12T03:33:34;102889.00;;;8.27;64.73
62374;BME280;48409;49.030;1.820;2023-02-12T03:39:19;102880.25;;;8.25;64.76
62374;BME280;48409;49.030;1.820;2023-02-12T03:42:00;102879.38;;;8.24;64.57
62374;BME280;48409;49.030;1.820;2023-02-12T03:50:32;102877.66;;;8.23;64.94
62374;BME280;48409;49.030;1.820;2023-02-12T03:53:00;102870.63;;;8.22;64.68
62374;BME280;48409;49.030;1.820;2023-02-12T03:55:25;102874.13;;;8.24;64.78
62374;BME280;48409;49.030;1.820;2023-02-12T03:57:54;102874.13;;;8.24;64.88
62374;BME280;48409;49.030;1.820;2023-02-12T04:00:24;102872.38;;;8.25;64.63
62374;BME280;48409;49.030;1.820;2023-02-12T04:02:50;102871.50;;;8.26;64.94
62374;BME280;48409;49.030;1.820;2023-02-12T04:05:26;102868.88;;;8.24;64.73
62374;BME280;48409;49.030;1.820;2023-02-12T04:07:53;102870.63;;;8.25;64.83
62374;BME280;48409;49.030;1.820;2023-02-12T04:10:31;102872.38;;;8.26;64.67
62374;BME280;48409;49.030;1.820;2023-02-12T04:13:18;102873.25;;;8.25;64.84
62374;BME280;48409;49.030;1.820;2023-02-12T04:26:41;102875.88;;;8.25;64.62
62374;BME280;48409;49.030;1.820;2023-02-12T04:32:41;102875.88;;;8.25;64.76
62374;BME280;48409;49.030;1.820;2023-02-12T04:35:19;102878.50;;;8.25;64.74
62374;BME280;48409;49.030;1.820;2023-02-12T04:37:56;102887.28;;;8.24;64.61
62374;BME280;48409;49.030;1.820;2023-02-12T04:40:25;102889.88;;;8.24;64.55
62374;BME280;48409;49.030;1.820;2023-02-12T04:42:52;102884.66;;;8.24;64.67
62374;BME280;48409;49.030;1.820;2023-02-12T04:45:24;102877.63;;;8.25;64.83
62374;BME280;48409;49.030;1.820;2023-02-12T04:47:50;102876.78;;;8.26;64.78
62374;BME280;48409;49.030;1.820;2023-02-12T04:50:16;102881.13;;;8.25;64.82
62374;BME280;48409;49.030;1.820;2023-02-12T04:52:41;102885.50;;;8.26;64.61
62374;BME280;48409;49.030;1.820;2023-02-12T04:55:07;102889.00;;;8.27;64.82
62374;BME280;48409;49.030;1.820;2023-02-12T04:57:32;102884.63;;;8.27;64.75
62374;BME280;48409;49.030;1.820;2023-02-12T04:59:58;102881.13;;;8.27;64.89
62374;BME280;48409;49.030;1.820;2023-02-12T05:02:23;102882.88;;;8.26;64.97
62374;BME280;48409;49.030;1.820;2023-02-12T05:04:49;102881.13;;;8.25;64.64
62374;BME280;48409;49.030;1.820;2023-02-12T05:07:15;102875.00;;;8.25;64.85
62374;BME280;48409;49.030;1.820;2023-02-12T05:09:40;102870.63;;;8.25;64.66
62374;BME280;48409;49.030;1.820;2023-02-12T05:12:06;102875.88;;;8.25;64.76
62374;BME280;48409;49.030;1.820;2023-02-12T05:14:31;102875.88;;;8.25;64.58
62374;BME280;48409;49.030;1.820;2023-02-12T05:16:57;102879.38;;;8.27;64.73
62374;BME280;48409;49.030;1.820;2023-02-12T05:19:22;102871.50;;;8.26;64.63
62374;BME280;48409;49.030;1.820;2023-02-12T05:21:51;102872.38;;;8.26;64.73
62374;BME280;48409;49.030;1.820;2023-02-12T05:24:16;102872.38;;;8.26;64.70
62374;BME280;48409;49.030;1.820;2023-02-12T05:26:42;102870.63;;;8.25;64.77
62374;BME280;48409;49.030;1.820;2023-02-12T05:29:07;102865.38;;;8.25;64.76
62374;BME280;48409;49.030;1.820;2023-02-12T05:31:33;102862.75;;;8.25;64.85
62374;BME280;48409;49.030;1.820;2023-02-12T05:33:58;102875.00;;;8.26;64.70
62374;BME280;48409;49.030;1.820;2023-02-12T05:36:24;102866.25;;;8.26;64.81
62374;BME280;48409;49.030;1.820;2023-02-12T05:38:51;102864.50;;;8.26;64.59
62374;BME280;48409;49.030;1.820;2023-02-12T05:41:21;102868.91;;;8.26;64.69
62374;BME280;48409;49.030;1.820;2023-02-12T05:43:48;102872.38;;;8.25;64.58
62374;BME280;48409;49.030;1.820;2023-02-12T05:46:13;102867.16;;;8.23;64.77
62374;BME280;48409;49.030;1.820;2023-02-12T05:48:39;102868.88;;;8.24;64.95
62374;BME280;48409;49.030;1.820;2023-02-12T05:51:08;102867.16;;;8.23;64.89
62374;BME280;48409;49.030;1.820;2023-02-12T05:53:35;102867.16;;;8.23;64.74
62374;BME280;48409;49.030;1.820;2023-02-12T05:56:18;102869.78;;;8.23;64.66
62374;BME280;48409;49.030;1.820;2023-02-12T05:58:46;102867.16;;;8.23;64.96
62374;BME280;48409;49.030;1.820;2023-02-12T06:01:15;102862.75;;;8.22;64.80
62374;BME280;48409;49.030;1.820;2023-02-12T06:03:40;102870.63;;;8.22;64.90
62374;BME280;48409;49.030;1.820;2023-02-12T06:06:06;102864.53;;;8.21;64.72
62374;BME280;48409;49.030;1.820;2023-02-12T06:08:32;102858.38;;;8.21;64.89
62374;BME280;48409;49.030;1.820;2023-02-12T06:11:02;102861.88;;;8.20;64.75
62374;BME280;48409;49.030;1.820;2023-02-12T06:13:29;102856.63;;;8.20;64.86
62374;BME280;48409;49.030;1.820;2023-02-12T06:15:54;102856.63;;;8.20;64.78
62374;BME280;48409;49.030;1.820;2023-02-12T06:18:20;102855.75;;;8.21;64.82
62374;BME280;48409;49.030;1.820;2023-02-12T06:20:45;102848.75;;;8.20;64.99
62374;BME280;48409;49.030;1.820;2023-02-12T06:23:10;102841.75;;;8.20;64.93
62374;BME280;48409;49.030;1.820;2023-02-12T06:25:36;102841.78;;;8.19;64.94
62374;BME280;48409;49.030;1.820;2023-02-12T06:28:01;102851.38;;;8.21;64.88
62374;BME280;48409;49.030;1.820;2023-02-12T06:30:27;102851.38;;;8.20;64.72
62374;BME280;48409;49.030;1.820;2023-02-12T06:32:52;102850.50;;;8.21;64.95
62374;BME280;48409;49.030;1.820;2023-02-12T06:35:18;102854.00;;;8.20;64.64
62374;BME280;48409;49.030;1.820;2023-02-12T06:37:43;102862.75;;;8.20;64.90
62374;BME280;48409;49.030;1.820;2023-02-12T06:40:09;102861.00;;;8.21;64.79
62374;BME280;48409;49.030;1.820;2023-02-12T06:42:34;102857.50;;;8.22;64.86
62374;BME280;48409;49.030;1.820;2023-02-12T06:44:59;102854.88;;;8.22;65.00
62374;BME280;48409;49.030;1.820;2023-02-12T06:47:26;102855.75;;;8.22;64.97
62374;BME280;48409;49.030;1.820;2023-02-12T06:49:51;102856.63;;;8.20;64.83
62374;BME280;48409;49.030;1.820;2023-02-12T06:52:16;102858.38;;;8.21;64.84
62374;BME280;48409;49.030;1.820;2023-02-12T06:54:42;102858.38;;;8.21;64.91
62374;BME280;48409;49.030;1.820;2023-02-12T06:57:07;102860.13;;;8.22;64.91
62374;BME280;48409;49.030;1.820;2023-02-12T06:59:34;102864.53;;;8.21;64.74
62374;BME280;48409;49.030;1.820;2023-02-12T07:01:59;102867.16;;;8.23;64.98
62374;BME280;48409;49.030;1.820;2023-02-12T07:04:24;102871.50;;;8.22;64.66
62374;BME280;48409;49.030;1.820;2023-02-12T07:06:50;102866.25;;;8.21;64.79
62374;BME280;48409;49.030;1.820;2023-02-12T07:09:16;102863.63;;;8.21;64.96
62374;BME280;48409;49.030;1.820;2023-02-12T07:11:41;102869.78;;;8.21;64.79
62374;BME280;48409;49.030;1.820;2023-02-12T07:14:07;102871.50;;;8.21;64.98
62374;BME280;48409;49.030;1.820;2023-02-12T07:16:37;102872.38;;;8.20;64.79
62374;BME280;48409;49.030;1.820;2023-02-12T07:19:02;102871.50;;;8.19;64.94
62374;BME280;48409;49.030;1.820;2023-02-12T07:21:28;102877.63;;;8.20;64.81
62374;BME280;48409;49.030;1.820;2023-02-12T07:23:56;102879.38;;;8.21;64.89
62374;BME280;48409;49.030;1.820;2023-02-12T07:26:21;102887.25;;;8.21;64.90
62374;BME280;48409;49.030;1.820;2023-02-12T07:28:50;102884.63;;;8.21;64.88
62374;BME280;48409;49.030;1.820;2023-02-12T07:31:18;102889.00;;;8.20;64.99
62374;BME280;48409;49.030;1.820;2023-02-12T07:33:44;102889.00;;;8.20;64.75
62374;BME280;48409;49.030;1.820;2023-02-12T07:36:17;102896.91;;;8.19;65.01
62374;BME280;48409;49.030;1.820;2023-02-12T07:38:43;102888.16;;;8.20;64.89
62374;BME280;48409;49.030;1.820;2023-02-12T07:41:11;102888.16;;;8.20;64.99
62374;BME280;48409;49.030;1.820;2023-02-12T07:43:39;102892.50;;;8.21;65.12
62374;BME280;48409;49.030;1.820;2023-02-12T07:46:09;102898.66;;;8.21;64.89
62374;BME280;48409;49.030;1.820;2023-02-12T07:48:35;102890.78;;;8.21;64.90
62374;BME280;48409;49.030;1.820;2023-02-12T07:51:06;102899.50;;;8.22;64.91
62374;BME280;48409;49.030;1.820;2023-02-12T07:53:31;102890.78;;;8.21;64.94
62374;BME280;48409;49.030;1.820;2023-02-12T07:58:35;102895.13;;;8.21;64.99
62374;BME280;48409;49.030;1.820;2023-02-12T08:01:10;102899.50;;;8.22;64.96
62374;BME280;48409;49.030;1.820;2023-02-12T08:03:36;102905.63;;;8.21;65.04
62374;BME280;48409;49.030;1.820;2023-02-12T08:06:06;102910.00;;;8.22;65.00
62374;BME280;48409;49.030;1.820;2023-02-12T08:08:32;102905.63;;;8.21;64.92
62374;BME280;48409;49.030;1.820;2023-02-12T08:10:57;102909.16;;;8.23;64.88
62374;BME280;48409;49.030;1.820;2023-02-12T08:13:23;102909.16;;;8.23;65.00
62374;BME280;48409;49.030;1.820;2023-02-12T08:15:48;102912.63;;;8.22;64.99
62374;BME280;48409;49.030;1.820;2023-02-12T08:18:13;102910.00;;;8.23;64.97
62374;BME280;48409;49.030;1.820;2023-02-12T08:20:39;102902.13;;;8.25;65.01
62374;BME280;48409;49.030;1.820;2023-02-12T08:23:04;102912.63;;;8.25;64.95
62374;BME280;48409;49.030;1.820;2023-02-12T08:25:29;102909.13;;;8.26;65.03
62374;BME280;48409;49.030;1.820;2023-02-12T08:27:55;102915.28;;;8.27;64.83
62374;BME280;48409;49.030;1.820;2023-02-12T08:30:20;102904.78;;;8.27;65.00
62374;BME280;48409;49.030;1.820;2023-02-12T08:32:48;102908.25;;;8.27;65.20
62374;BME280;48409;49.030;1.820;2023-02-12T08:35:13;102921.38;;;8.27;65.06
62374;BME280;48409;49.030;1.820;2023-02-12T08:37:39;102917.91;;;8.28;65.05
62374;BME280;48409;49.030;1.820;2023-02-12T08:40:05;102911.75;;;8.29;65.03
62374;BME280;48409;49.030;1.820;2023-02-12T08:42:30;102917.91;;;8.28;65.07
62374;BME280;48409;49.030;1.820;2023-02-12T08:44:55;102921.38;;;8.30;65.11
62374;BME280;48409;49.030;1.820;2023-02-12T08:47:21;102920.53;;;8.30;65.16
62374;BME280;48409;49.030;1.820;2023-02-12T08:49:46;102917.88;;;8.31;64.95
62374;BME280;48409;49.030;1.820;2023-02-12T08:52:11;102911.75;;;8.31;65.05
62374;BME280;48409;49.030;1.820;2023-02-12T08:54:37;102908.25;;;8.30;65.09
62374;BME280;48409;49.030;1.820;2023-02-12T08:57:03;102915.25;;;8.33;65.05
62374;BME280;48409;49.030;1.820;2023-02-12T08:59:29;102921.38;;;8.33;65.23
62374;BME280;48409;49.030;1.820;2023-02-12T09:01:54;102917.88;;;8.34;65.18
62374;BME280;48409;49.030;1.820;2023-02-12T09:04:22;102922.25;;;8.34;65.12
62374;BME280;48409;49.030;1.820;2023-02-12T09:06:49;102924.03;;;8.35;65.01
62374;BME280;48409;49.030;1.820;2023-02-12T09:09:15;102917.88;;;8.36;65.05
62374;BME280;48409;49.030;1.820;2023-02-12T09:11:42;102917.88;;;8.38;65.20
62374;BME280;48409;49.030;1.820;2023-02-12T09:14:11;102917.00;;;8.37;65.10
62374;BME280;48409;49.030;1.820;2023-02-12T09:16:37;102915.25;;;8.39;65.22
62374;BME280;48409;49.030;1.820;2023-02-12T09:19:07;102914.38;;;8.40;65.19
62374;BME280;48409;49.030;1.820;2023-02-12T09:21:32;102917.84;;;8.41;65.07
62374;BME280;48409;49.030;1.820;2023-02-12T09:23:58;102919.63;;;8.42;65.02
62374;BME280;48409;49.030;1.820;2023-02-12T09:26:24;102919.63;;;8.42;65.25
62374;BME280;48409;49.030;1.820;2023-02-12T09:28:50;102916.13;;;8.43;65.37
62374;BME280;48409;49.030;1.820;2023-02-12T09:31:21;102910.88;;;8.46;65.25
62374;BME280;48409;49.030;1.820;2023-02-12T09:33:50;102916.13;;;8.46;65.32
62374;BME280;48409;49.030;1.820;2023-02-12T09:36:16;102925.75;;;8.47;65.18
62374;BME280;48409;49.030;1.820;2023-02-12T09:38:42;102917.88;;;8.47;65.10
62374;BME280;48409;49.030;1.820;2023-02-12T09:41:30;102917.88;;;8.48;65.17
62374;BME280;48409;49.030;1.820;2023-02-12T09:52:19;102920.50;;;8.50;64.90
62374;BME280;48409;49.030;1.820;2023-02-12T09:54:47;102912.63;;;8.50;65.05
62374;BME280;48409;49.030;1.820;2023-02-12T09:59:55;102917.88;;;8.53;65.38
62374;BME280;48409;49.030;1.820;2023-02-12T10:02:22;102914.41;;;8.54;65.30
62374;BME280;48409;49.030;1.820;2023-02-12T10:04:49;102912.63;;;8.56;65.45
62374;BME280;48409;49.030;1.820;2023-02-12T10:12:58;102912.59;;;8.62;65.23
62374;BME280;48409;49.030;1.820;2023-02-12T10:15:37;102917.00;;;8.65;65.33
62374;BME280;48409;49.030;1.820;2023-02-12T10:21:32;102910.84;;;8.71;65.58
62374;BME280;48409;49.030;1.820;2023-02-12T10:26:42;102914.34;;;8.73;65.50
62374;BME280;48409;49.030;1.820;2023-02-12T10:29:16;102919.56;;;8.76;65.23
62374;BME280;48409;49.030;1.820;2023-02-12T10:31:47;102914.31;;;8.79;65.40
62374;BME280;48409;49.030;1.820;2023-02-12T10:34:25;102909.94;;;8.80;65.46
62374;BME280;48409;49.030;1.820;2023-02-12T10:37:01;102900.28;;;8.83;65.39
62374;BME280;48409;49.030;1.820;2023-02-12T10:39:31;102911.66;;;8.87;65.34
62374;BME280;48409;49.030;1.820;2023-02-12T10:44:35;102923.06;;;8.91;65.46
62374;BME280;48409;49.030;1.820;2023-02-12T10:47:01;102910.78;;;8.93;65.37
62374;BME280;48409;49.030;1.820;2023-02-12T10:49:30;102905.50;;;8.96;65.40
62374;BME280;48409;49.030;1.820;2023-02-12T10:52:19;102905.50;;;8.97;65.52
62374;BME280;48409;49.030;1.820;2023-02-12T10:54:47;102906.38;;;9.01;65.22
62374;BME280;48409;49.030;1.820;2023-02-12T10:57:24;102906.38;;;9.04;65.44
62374;BME280;48409;49.030;1.820;2023-02-12T10:59:53;102907.22;;;9.05;65.42
62374;BME280;48409;49.030;1.820;2023-02-12T11:02:21;102910.72;;;9.08;65.56
62374;BME280;48409;49.030;1.820;2023-02-12T11:04:48;102895.81;;;9.09;65.55
62374;BME280;48409;49.030;1.820;2023-02-12T11:07:14;102903.69;;;9.13;65.41
62374;BME280;48409;49.030;1.820;2023-02-12T11:09:46;102902.81;;;9.16;65.44
62374;BME280;48409;49.030;1.820;2023-02-12T11:12:38;102904.53;;;9.17;65.33
62374;BME280;48409;49.030;1.820;2023-02-12T11:15:13;102898.38;;;9.20;65.49
62374;BME280;48409;49.030;1.820;2023-02-12T11:17:42;102904.53;;;9.22;65.51
62374;BME280;48409;49.030;1.820;2023-02-12T11:22:49;102887.88;;;9.23;65.35
62374;BME280;48409;49.030;1.820;2023-02-12T11:25:16;102885.22;;;9.26;65.39
62374;BME280;48409;49.030;1.820;2023-02-12T11:27:42;102884.34;;;9.27;65.40
62374;BME280;48409;49.030;1.820;2023-02-12T11:30:16;102878.19;;;9.30;65.30
62374;BME280;48409;49.030;1.820;2023-02-12T11:32:43;102875.56;;;9.31;65.25
62374;BME280;48409;49.030;1.820;2023-02-12T11:35:17;102865.03;;;9.31;65.59
62374;BME280;48409;49.030;1.820;2023-02-12T11:37:51;102856.25;;;9.35;65.40
62374;BME280;48409;49.030;1.820;2023-02-12T11:40:21;102859.72;;;9.37;65.42
62374;BME280;48409;49.030;1.820;2023-02-12T11:43:04;102855.34;;;9.39;65.55
62374;BME280;48409;49.030;1.820;2023-02-12T11:45:35;102857.94;;;9.43;65.43
62374;BME280;48409;49.030;1.820;2023-02-12T11:48:15;102856.19;;;9.45;65.52
62374;BME280;48409;49.030;1.820;2023-02-12T11:50:48;102843.88;;;9.47;65.28
62374;BME280;48409;49.030;1.820;2023-02-12T11:53:19;102842.13;;;9.49;65.23
62374;BME280;48409;49.030;1.820;2023-02-12T11:55:55;102842.13;;;9.49;65.34
62374;BME280;48409;49.030;1.820;2023-02-12T11:58:23;102835.97;;;9.50;65.25
62374;BME280;48409;49.030;1.820;2023-02-12T12:04:10;102827.16;;;9.56;65.56
62374;BME280;48409;49.030;1.820;2023-02-12T12:06:40;102821.00;;;9.57;65.55
62374;BME280;48409;49.030;1.820;2023-02-12T12:09:27;102832.38;;;9.60;65.50
62374;BME280;48409;49.030;1.820;2023-02-12T12:12:18;102828.00;;;9.62;65.51
62374;BME280;48409;49.030;1.820;2023-02-12T12:14:49;102825.34;;;9.65;65.60
62374;BME280;48409;49.030;1.820;2023-02-12T12:17:47;102810.41;;;9.68;65.31
62374;BME280;48409;49.030;1.820;2023-02-12T12:20:40;102810.38;;;9.71;65.32
62374;BME280;48409;49.030;1.820;2023-02-12T12:25:55;102811.22;;;9.76;65.36
62374;BME280;48409;49.030;1.820;2023-02-12T12:28:35;102812.06;;;9.78;65.33
62374;BME280;48409;49.030;1.820;2023-02-12T12:31:28;102806.78;;;9.81;65.70
62374;BME280;48409;49.030;1.820;2023-02-12T12:45:13;102808.47;;;9.88;65.33
62374;BME280;48409;49.030;1.820;2023-02-12T12:54:01;102789.13;;;9.92;65.45
62374;BME280;48409;49.030;1.820;2023-02-12T13:18:03;102780.16;;;10.12;65.38
62374;BME280;48409;49.030;1.820;2023-02-12T13:20:45;102785.38;;;10.15;65.24
62374;BME280;48409;49.030;1.820;2023-02-12T13:23:31;102775.69;;;10.17;65.27
62374;BME280;48409;49.030;1.820;2023-02-12T13:29:05;102772.13;;;10.22;65.39
62374;BME280;48409;49.030;1.820;2023-02-12T13:31:43;102769.47;;;10.25;65.15
62374;BME280;48409;49.030;1.820;2023-02-12T13:34:14;102772.94;;;10.27;65.42
62374;BME280;48409;49.030;1.820;2023-02-12T13:36:42;102768.56;;;10.29;65.39
62374;BME280;48409;49.030;1.820;2023-02-12T13:39:26;102759.75;;;10.30;65.35
62374;BME280;48409;49.030;1.820;2023-02-12T13:44:56;102760.56;;;10.35;65.33
62374;BME280;48409;49.030;1.820;2023-02-12T13:50:30;102749.13;;;10.38;65.07
62374;BME280;48409;49.030;1.820;2023-02-12T14:03:23;102744.66;;;10.46;65.25
62374;BME280;48409;49.030;1.820;2023-02-12T14:06:09;102736.75;;;10.48;65.25
62374;BME280;48409;49.030;1.820;2023-02-12T14:08:41;102740.19;;;10.51;65.36
62374;BME280;48409;49.030;1.820;2023-02-12T14:11:10;102739.31;;;10.54;65.15
62374;BME280;48409;49.030;1.820;2023-02-12T14:13:59;102737.53;;;10.56;65.01
62374;BME280;48409;49.030;1.820;2023-02-12T14:21:57;102728.66;;;10.63;65.06
62374;BME280;48409;49.030;1.820;2023-02-12T14:24:46;102728.66;;;10.63;65.12
62374;BME280;48409;49.030;1.820;2023-02-12T14:27:35;102728.59;;;10.66;65.15
62374;BME280;48409;49.030;1.820;2023-02-12T14:35:34;102719.75;;;10.70;65.10
62374;BME280;48409;49.030;1.820;2023-02-12T14:38:02;102718.88;;;10.72;64.94
62374;BME280;48409;49.030;1.820;2023-02-12T14:48:56;102713.53;;;10.76;64.91
62374;BME280;48409;49.030;1.820;2023-02-12T14:54:01;102702.97;;;10.76;65.00
62374;BME280;48409;49.030;1.820;2023-02-12T14:56:33;102707.31;;;10.79;64.65
62374;BME280;48409;49.030;1.820;2023-02-12T14:59:05;102701.19;;;10.78;64.71
62374;BME280;48409;49.030;1.820;2023-02-12T15:01:33;102699.41;;;10.79;64.76
62374;BME280;48409;49.030;1.820;2023-02-12T15:04:11;102702.06;;;10.79;64.73
62374;BME280;48409;49.030;1.820;2023-02-12T15:06:42;102699.41;;;10.79;64.66
62374;BME280;48409;49.030;1.820;2023-02-12T15:09:19;102691.53;;;10.76;64.35
62374;BME280;48409;49.030;1.820;2023-02-12T15:11:51;102700.34;;;10.75;64.44
62374;BME280;48409;49.030;1.820;2023-02-12T15:14:24;102690.72;;;10.72;64.46
62374;BME280;48409;49.030;1.820;2023-02-12T15:16:55;102695.16;;;10.72;64.28
62374;BME280;48409;49.030;1.820;2023-02-12T15:19:47;102696.91;;;10.69;64.53
62374;BME280;48409;49.030;1.820;2023-02-12T15:22:26;102695.19;;;10.68;64.37
62374;BME280;48409;49.030;1.820;2023-02-12T15:25:23;102685.59;;;10.64;64.34
62374;BME280;48409;49.030;1.820;2023-02-12T15:27:52;102696.13;;;10.64;64.40
62374;BME280;48409;49.030;1.820;2023-02-12T15:30:22;102689.97;;;10.62;64.32
62374;BME280;48409;49.030;1.820;2023-02-12T15:32:48;102684.78;;;10.59;64.24
62374;BME280;48409;49.030;1.820;2023-02-12T15:35:31;102688.28;;;10.58;64.27
62374;BME280;48409;49.030;1.820;2023-02-12T15:37:58;102679.53;;;10.56;64.35
62374;BME280;48409;49.030;1.820;2023-02-12T15:40:25;102681.34;;;10.54;64.12
62374;BME280;48409;49.030;1.820;2023-02-12T15:43:02;102684.00;;;10.52;64.07
62374;BME280;48409;49.030;1.820;2023-02-12T15:45:34;102681.41;;;10.48;63.99